Time;durP1;ratioP1;P1;durP2;ratioP2;P2;SDS_P1;SDS_P2;PMS_P1;PMS_P2;Temp;Humidity;BMP_temperature;BMP_pressure;BME280_temperature;BME280_humidity;BME280_pressure;Samples;Min_cycle;Max_cycle;Signal;HPM_P1;HPM_P2
2022/10/01 00:02:58;;;;;;;3.27;2.50;;;;;;;10.82;75.53;100598.31;6204927;28;20241;-71
2022/10/01 00:06:21;;;;;;;3.50;2.63;;;;;;;10.71;75.25;100595.75;6176678;28;20564;-70
2022/10/01 00:09:42;;;;;;;1.70;1.50;;;;;;;10.81;75.20;100596.59;6198771;28;20579;-71
2022/10/01 00:13:03;;;;;;;3.90;2.73;;;;;;;10.82;75.10;100592.91;6203777;28;20242;-71
2022/10/01 00:16:25;;;;;;;3.30;2.43;;;;;;;10.91;74.60;100586.66;6176512;28;20295;-71
2022/10/01 00:19:48;;;;;;;2.50;2.30;;;;;;;10.75;75.13;100579.16;6199624;28;20312;-71
2022/10/01 00:23:09;;;;;;;2.60;2.17;;;;;;;10.73;75.36;100581.13;6203039;28;20225;-71
2022/10/01 00:26:33;;;;;;;2.90;2.33;;;;;;;10.71;75.77;100577.75;6202176;28;20233;-71
2022/10/01 00:29:55;;;;;;;1.93;1.77;;;;;;;10.72;75.65;100581.28;6199559;28;20225;-71
2022/10/01 00:33:16;;;;;;;2.43;2.23;;;;;;;10.74;75.38;100565.81;6200658;28;20312;-71
2022/10/01 00:36:38;;;;;;;3.53;3.20;;;;;;;10.79;74.60;100558.97;6201274;28;20233;-71
2022/10/01 00:39:59;;;;;;;3.03;1.90;;;;;;;10.73;75.73;100562.25;6202475;28;20233;-70
2022/10/01 00:43:22;;;;;;;2.83;2.13;;;;;;;10.75;75.06;100551.31;6204253;28;20237;-70
2022/10/01 00:46:45;;;;;;;2.97;1.70;;;;;;;10.75;75.98;100551.31;6201877;28;20242;-70
2022/10/01 00:50:15;;;;;;;5.30;1.83;;;;;;;10.78;74.98;100538.44;6200252;28;20304;-70
2022/10/01 00:53:38;;;;;;;2.10;1.90;;;;;;;10.88;75.44;100535.69;6199299;28;20262;-70
2022/10/01 00:57:01;;;;;;;2.80;1.87;;;;;;;10.86;74.37;100529.59;6202577;28;20324;-70
2022/10/01 01:00:22;;;;;;;1.53;1.43;;;;;;;10.79;74.43;100515.00;6198743;28;20248;-72
2022/10/01 01:03:43;;;;;;;1.83;1.73;;;;;;;10.84;74.73;100512.72;6199815;28;20516;-71
2022/10/01 01:07:05;;;;;;;2.30;2.10;;;;;;;10.83;75.44;100519.94;6200464;28;20261;-71
2022/10/01 01:10:32;;;;;;;4.83;2.13;;;;;;;10.74;75.48;100523.53;6193018;28;20229;-70
2022/10/01 01:13:58;;;;;;;2.10;1.93;;;;;;;10.76;74.58;100518.00;6201823;28;20229;-71
2022/10/01 01:17:24;;;;;;;1.87;1.60;;;;;;;10.76;74.41;100510.75;6202123;28;20233;-71
2022/10/01 01:21:07;;;;;;;2.87;2.57;;;;;;;10.85;74.07;100503.63;6198725;28;20229;-70
2022/10/01 01:24:48;;;;;;;1.83;1.73;;;;;;;10.85;74.54;100493.69;6199670;28;20671;-69
2022/10/01 01:28:16;;;;;;;2.83;2.03;;;;;;;10.95;73.82;100489.09;6200709;28;20234;-70
2022/10/01 01:31:45;;;;;;;2.10;1.90;;;;;;;10.96;74.32;100474.63;6197433;28;20319;-70
2022/10/01 01:35:10;;;;;;;1.27;1.17;;;;;;;10.92;74.39;100480.47;6178875;28;20867;-70
2022/10/01 01:38:36;;;;;;;2.07;1.90;;;;;;;10.94;73.99;100471.22;6171084;28;20289;-70
2022/10/01 01:42:04;;;;;;;1.90;1.80;;;;;;;10.83;73.58;100462.47;6198287;28;20233;-71
2022/10/01 01:45:29;;;;;;;5.70;1.70;;;;;;;10.89;73.40;100470.00;6173592;28;20236;-71
2022/10/01 01:48:52;;;;;;;2.27;1.80;;;;;;;10.92;73.96;100462.44;6175088;28;20229;-70
2022/10/01 01:52:16;;;;;;;2.57;1.80;;;;;;;10.87;73.84;100453.06;6200858;28;20240;-71
2022/10/01 01:55:37;;;;;;;2.60;2.03;;;;;;;11.00;73.61;100446.34;6189494;28;20233;-69
2022/10/01 01:58:59;;;;;;;1.60;1.50;;;;;;;10.92;73.95;100440.00;6201268;28;20233;-69
2022/10/01 02:02:27;;;;;;;2.40;1.90;;;;;;;11.04;73.38;100431.56;6201202;28;20327;-70
2022/10/01 02:05:58;;;;;;;2.53;1.70;;;;;;;10.97;73.49;100426.94;6198622;28;20229;-70
2022/10/01 02:09:28;;;;;;;1.53;1.43;;;;;;;10.83;74.48;100411.22;6200604;28;20248;-70
2022/10/01 02:13:02;;;;;;;2.63;2.43;;;;;;;10.89;74.84;100411.50;6201077;28;20258;-70
2022/10/01 02:16:30;;;;;;;1.40;1.30;;;;;;;10.76;74.46;100399.38;6172883;28;20221;-71
2022/10/01 02:19:57;;;;;;;1.90;1.73;;;;;;;10.77;74.40;100401.91;6201913;28;20236;-70
2022/10/01 02:23:23;;;;;;;3.17;1.70;;;;;;;10.82;73.76;100391.53;6203186;28;20222;-71
2022/10/01 02:26:47;;;;;;;2.10;1.47;;;;;;;10.95;74.08;100383.09;6199541;28;20225;-71
2022/10/01 02:30:10;;;;;;;1.37;1.20;;;;;;;11.00;73.45;100378.94;6197012;28;20320;-71
2022/10/01 02:33:34;;;;;;;1.57;1.47;;;;;;;10.95;73.84;100378.53;6201479;28;20241;-70
2022/10/01 02:37:00;;;;;;;1.60;1.50;;;;;;;10.93;73.38;100368.91;6202451;28;20311;-70
2022/10/01 02:40:25;;;;;;;1.97;1.87;;;;;;;11.00;73.49;100359.19;6192698;28;20233;-69
2022/10/01 02:43:52;;;;;;;1.60;1.33;;;;;;;10.93;74.21;100364.34;6195338;28;20313;-70
2022/10/01 02:47:19;;;;;;;2.93;2.73;;;;;;;10.96;73.25;100364.06;6200445;28;20233;-69
2022/10/01 02:50:45;;;;;;;2.20;2.00;;;;;;;11.03;74.10;100353.50;6198535;28;20320;-70
2022/10/01 02:54:15;;;;;;;1.47;1.37;;;;;;;10.93;73.69;100348.16;6176097;28;20600;-70
2022/10/01 02:57:37;;;;;;;2.70;1.80;;;;;;;10.85;74.71;100344.53;6202458;28;20244;-70
2022/10/01 03:00:58;;;;;;;1.87;1.77;;;;;;;10.90;74.53;100340.38;6171367;28;20237;-71
2022/10/01 03:04:19;;;;;;;1.40;1.30;;;;;;;10.92;73.41;100333.00;6176741;28;20232;-70
2022/10/01 03:07:41;;;;;;;2.93;1.33;;;;;;;10.87;73.67;100329.91;6202558;28;20261;-71
2022/10/01 03:11:03;;;;;;;2.37;1.93;;;;;;;10.94;74.15;100322.06;6185059;28;20336;-70
2022/10/01 03:14:24;;;;;;;1.63;1.53;;;;;;;10.96;74.02;100318.22;6200422;28;20233;-71
2022/10/01 03:17:45;;;;;;;1.63;1.50;;;;;;;10.96;73.84;100310.13;6199993;28;20606;-69
2022/10/01 03:21:06;;;;;;;2.30;2.20;;;;;;;10.94;74.06;100312.13;6200354;28;20626;-70
2022/10/01 03:24:27;;;;;;;1.37;1.27;;;;;;;10.97;74.25;100311.78;6198545;28;20256;-71
2022/10/01 03:27:49;;;;;;;1.57;1.47;;;;;;;10.91;73.84;100304.31;6197247;28;20357;-70
2022/10/01 03:31:11;;;;;;;3.63;1.40;;;;;;;11.02;73.82;100301.41;6189875;28;20237;-71
2022/10/01 03:34:32;;;;;;;1.63;1.30;;;;;;;11.15;73.67;100304.59;6198221;28;20233;-70
2022/10/01 03:37:53;;;;;;;2.80;2.23;;;;;;;11.14;73.63;100294.78;6196687;28;20563;-70
2022/10/01 03:41:14;;;;;;;1.10;1.10;;;;;;;11.15;72.40;100307.28;6168628;28;20238;-70
2022/10/01 03:44:36;;;;;;;1.60;1.23;;;;;;;11.21;72.31;100295.88;6198954;28;20237;-70
2022/10/01 03:47:56;;;;;;;1.97;1.30;;;;;;;11.20;73.10;100294.16;6199805;28;20229;-70
2022/10/01 03:51:19;;;;;;;1.40;1.30;;;;;;;11.24;73.01;100289.31;6167180;28;20619;-70
2022/10/01 03:54:40;;;;;;;2.90;1.73;;;;;;;11.22;72.79;100292.16;6199093;28;20242;-70
2022/10/01 03:58:01;;;;;;;3.43;1.50;;;;;;;11.20;72.95;100287.94;6203626;28;20234;-70
2022/10/01 04:01:24;;;;;;;1.87;1.50;;;;;;;11.17;72.68;100293.63;6180026;28;20236;-71
2022/10/01 04:04:45;;;;;;;1.77;1.67;;;;;;;11.15;73.73;100291.09;6200753;28;20328;-69
2022/10/01 04:08:06;;;;;;;1.80;1.70;;;;;;;11.08;74.51;100289.16;6202409;28;20252;-70
2022/10/01 04:11:27;;;;;;;1.50;1.40;;;;;;;11.04;75.92;100285.06;6177556;28;20230;-70
2022/10/01 04:14:48;;;;;;;1.57;1.47;;;;;;;11.07;76.24;100263.19;6200536;28;20230;-70
2022/10/01 04:18:10;;;;;;;2.00;1.37;;;;;;;10.96;76.58;100264.25;6206162;28;20232;-71
2022/10/01 04:21:31;;;;;;;1.30;1.20;;;;;;;10.90;77.75;100262.19;6200323;28;20225;-71
2022/10/01 04:24:53;;;;;;;1.67;1.57;;;;;;;10.84;79.06;100259.25;6205082;28;20224;-71
2022/10/01 04:28:14;;;;;;;2.20;1.30;;;;;;;10.78;79.32;100255.31;6202090;28;20225;-71
2022/10/01 04:31:35;;;;;;;1.53;1.43;;;;;;;10.66;79.73;100248.44;6199317;28;20289;-71
2022/10/01 04:34:58;;;;;;;2.43;1.67;;;;;;;10.65;79.83;100240.50;6202720;28;20237;-71
2022/10/01 04:38:18;;;;;;;2.93;1.53;;;;;;;10.63;80.31;100226.34;6200559;28;20328;-71
2022/10/01 04:41:39;;;;;;;2.73;1.70;;;;;;;10.49;80.96;100218.78;6199496;28;20320;-71
2022/10/01 04:45:00;;;;;;;1.57;1.47;;;;;;;10.51;81.17;100206.00;6201675;28;20229;-72
2022/10/01 04:48:21;;;;;;;2.10;1.87;;;;;;;10.50;82.26;100197.06;6200669;28;20706;-71
2022/10/01 04:51:43;;;;;;;2.00;1.90;;;;;;;10.56;82.12;100171.34;6197842;28;20217;-72
2022/10/01 04:55:04;;;;;;;1.83;1.73;;;;;;;10.54;82.07;100159.88;6196326;28;20237;-72
2022/10/01 04:58:25;;;;;;;2.97;2.13;;;;;;;10.56;82.66;100149.78;6198935;28;20229;-72
2022/10/01 05:01:46;;;;;;;2.40;2.20;;;;;;;10.58;82.55;100154.03;6189634;28;20260;-72
2022/10/01 05:05:08;;;;;;;2.00;1.60;;;;;;;10.51;82.63;100144.03;6200633;28;20262;-72
2022/10/01 05:08:30;;;;;;;2.13;1.60;;;;;;;10.60;82.10;100137.72;6199306;28;20249;-72
2022/10/01 05:11:51;;;;;;;1.73;1.43;;;;;;;10.57;82.67;100128.09;6197196;28;20252;-71
2022/10/01 05:15:13;;;;;;;1.73;1.63;;;;;;;10.52;83.27;100116.91;6172130;28;20229;-73
2022/10/01 05:18:33;;;;;;;1.50;1.40;;;;;;;10.47;83.86;100119.25;6197480;28;20228;-72
2022/10/01 05:21:54;;;;;;;1.70;1.60;;;;;;;10.42;84.24;100114.31;6199991;28;20225;-71
2022/10/01 05:25:18;;;;;;;2.77;2.53;;;;;;;10.51;83.73;100115.25;6195287;28;20225;-72
2022/10/01 05:28:43;;;;;;;2.07;1.87;;;;;;;10.39;84.44;100109.22;6195228;28;20229;-72
2022/10/01 05:32:04;;;;;;;2.63;1.87;;;;;;;10.43;84.64;100102.50;6198061;28;20225;-72
2022/10/01 05:35:25;;;;;;;1.67;1.57;;;;;;;10.27;85.25;100104.22;6198580;28;20228;-71
2022/10/01 05:38:47;;;;;;;2.43;1.60;;;;;;;10.27;85.51;100102.38;6198366;28;20634;-73
2022/10/01 05:42:10;;;;;;;1.43;1.33;;;;;;;10.28;85.74;100108.59;6185104;28;20734;-72
2022/10/01 05:45:32;;;;;;;1.57;1.20;;;;;;;10.16;86.45;100107.09;6197542;28;20240;-74
2022/10/01 05:48:53;;;;;;;1.53;1.30;;;;;;;10.22;86.70;100095.75;6199447;28;20233;-72
2022/10/01 05:52:15;;;;;;;7.33;1.90;;;;;;;10.26;86.94;100103.34;6200740;28;20233;-71
2022/10/01 05:55:36;;;;;;;3.60;1.47;;;;;;;10.14;88.22;100101.03;6199397;28;20229;-71
2022/10/01 05:58:58;;;;;;;2.67;2.43;;;;;;;10.14;87.68;100101.03;6197713;28;20257;-72
2022/10/01 06:02:19;;;;;;;2.60;1.40;;;;;;;10.03;88.94;100090.47;6186910;28;20636;-72
2022/10/01 06:05:40;;;;;;;1.97;1.87;;;;;;;10.09;88.82;100095.25;6199120;28;20516;-72
2022/10/01 06:09:01;;;;;;;3.73;3.43;;;;;;;10.03;89.13;100095.84;6198376;28;20509;-71
2022/10/01 06:12:22;;;;;;;2.00;1.77;;;;;;;10.09;89.36;100079.09;6195294;28;20225;-72
2022/10/01 06:15:45;;;;;;;5.40;1.77;;;;;;;10.14;89.38;100077.66;6188880;28;20609;-72
2022/10/01 06:19:06;;;;;;;2.10;1.90;;;;;;;10.19;89.43;100063.72;6197030;28;20512;-71
2022/10/01 06:22:27;;;;;;;2.10;1.67;;;;;;;9.99;89.80;100075.63;6196452;28;20229;-71
2022/10/01 06:25:48;;;;;;;0.97;0.97;;;;;;;10.13;89.99;100061.66;6194777;28;20721;-70
2022/10/01 06:29:10;;;;;;;2.87;2.50;;;;;;;10.03;90.04;100063.53;6186735;28;20229;-72
2022/10/01 06:32:32;;;;;;;1.70;1.60;;;;;;;9.99;90.63;100060.28;6193906;28;20510;-72
2022/10/01 06:35:53;;;;;;;2.17;1.63;;;;;;;10.09;90.83;100050.31;6195981;28;20237;-71
2022/10/01 06:39:14;;;;;;;1.53;1.43;;;;;;;10.12;90.76;100046.47;6195205;28;20510;-71
2022/10/01 06:42:34;;;;;;;1.43;1.33;;;;;;;9.99;91.43;100046.00;6200918;28;20233;-72
2022/10/01 06:45:56;;;;;;;1.73;1.37;;;;;;;9.98;91.26;100036.22;6200285;28;20237;-72
2022/10/01 06:49:19;;;;;;;1.30;1.20;;;;;;;10.13;91.05;100032.88;6190797;28;20491;-72
2022/10/01 06:52:49;;;;;;;2.50;2.00;;;;;;;10.01;91.38;100025.16;6200424;28;20528;-73
2022/10/01 06:56:09;;;;;;;2.80;1.60;;;;;;;10.02;91.27;100018.75;6199230;28;20787;-72
2022/10/01 06:59:30;;;;;;;1.67;1.57;;;;;;;10.05;90.80;100022.00;6194569;28;20228;-71
2022/10/01 07:02:51;;;;;;;1.50;1.40;;;;;;;10.12;91.20;100008.78;6196112;28;20237;-71
2022/10/01 07:06:14;;;;;;;2.43;2.27;;;;;;;10.09;91.15;100014.44;6192868;28;20594;-71
2022/10/01 07:09:35;;;;;;;2.47;2.27;;;;;;;10.05;91.71;100013.94;6190277;28;20245;-71
2022/10/01 07:12:55;;;;;;;1.67;1.50;;;;;;;10.11;91.55;100007.94;6192422;28;20615;-72
2022/10/01 07:16:16;;;;;;;2.47;2.27;;;;;;;10.23;91.54;100014.78;6169223;28;20803;-72
2022/10/01 07:19:37;;;;;;;2.17;1.97;;;;;;;10.14;92.31;100017.53;6196551;28;20233;-71
2022/10/01 07:23:00;;;;;;;1.50;1.40;;;;;;;10.07;92.90;100011.94;6196445;28;20255;-71
2022/10/01 07:26:21;;;;;;;1.77;1.67;;;;;;;10.02;92.97;100010.66;6160293;28;20229;-71
2022/10/01 07:29:42;;;;;;;2.40;2.17;;;;;;;10.12;93.41;100006.09;6200731;28;20237;-71
2022/10/01 07:33:03;;;;;;;3.87;1.40;;;;;;;10.14;93.25;100006.78;6197991;28;20509;-72
2022/10/01 07:36:24;;;;;;;1.90;1.80;;;;;;;10.05;93.83;100003.16;6181465;28;20489;-72
2022/10/01 07:39:46;;;;;;;3.00;2.70;;;;;;;10.13;93.64;99995.19;6182130;28;20880;-72
2022/10/01 07:43:08;;;;;;;1.83;1.73;;;;;;;10.17;94.08;100001.09;6177164;28;21720;-72
2022/10/01 07:46:29;;;;;;;1.60;1.50;;;;;;;10.19;93.55;99993.69;6173111;28;20222;-72
2022/10/01 07:49:49;;;;;;;2.40;1.40;;;;;;;10.25;93.57;99979.59;6191327;28;20233;-73
2022/10/01 07:53:11;;;;;;;4.47;2.47;;;;;;;10.24;93.40;99972.53;6185448;28;20236;-73
2022/10/01 07:56:33;;;;;;;2.00;1.60;;;;;;;10.26;93.91;99970.53;6205511;28;20225;-71
2022/10/01 07:59:54;;;;;;;1.77;1.67;;;;;;;10.22;94.07;99963.78;6194148;28;20237;-73
2022/10/01 08:03:15;;;;;;;1.33;1.17;;;;;;;10.30;93.89;99958.44;6210706;28;20233;-71
2022/10/01 08:06:37;;;;;;;2.93;2.40;;;;;;;10.32;93.25;99957.28;6213135;28;20229;-74
2022/10/01 08:09:58;;;;;;;1.30;1.20;;;;;;;10.30;94.32;99959.31;6211292;28;20221;-74
2022/10/01 08:13:23;;;;;;;1.23;1.13;;;;;;;10.32;94.63;99954.59;6213622;28;20248;-74
2022/10/01 08:16:44;;;;;;;1.50;1.40;;;;;;;10.45;94.37;99954.19;6209747;28;20233;-72
2022/10/01 08:20:06;;;;;;;2.60;1.73;;;;;;;10.46;94.23;99947.78;6214287;28;20327;-72
2022/10/01 08:23:29;;;;;;;3.23;1.77;;;;;;;10.47;93.94;99954.03;6208635;28;21265;-72
2022/10/01 08:26:54;;;;;;;1.77;1.20;;;;;;;10.42;94.15;99947.25;6213737;28;20573;-75
2022/10/01 08:30:17;;;;;;;3.13;2.60;;;;;;;10.41;94.83;99950.09;6195533;28;20229;-72
2022/10/01 08:33:38;;;;;;;1.07;0.97;;;;;;;10.47;94.69;99952.19;6181946;28;20246;-72
2022/10/01 08:36:59;;;;;;;1.43;1.30;;;;;;;10.43;94.38;99950.78;6204914;28;20716;-68
2022/10/01 08:40:21;;;;;;;1.60;1.50;;;;;;;10.62;93.94;99950.56;6178404;28;20268;-70
2022/10/01 08:43:42;;;;;;;1.03;1.03;;;;;;;10.74;93.23;99945.78;6204094;28;20241;-69
2022/10/01 08:47:13;;;;;;;1.13;1.13;;;;;;;10.55;94.00;99943.28;6212494;28;20225;-70
2022/10/01 08:50:45;;;;;;;0.90;0.90;;;;;;;10.50;95.18;99946.47;6204825;28;20256;-70
2022/10/01 08:54:14;;;;;;;1.43;1.33;;;;;;;10.51;95.48;99934.69;6201606;28;20237;-69
2022/10/01 08:57:41;;;;;;;1.37;0.83;;;;;;;10.58;95.60;99932.19;6191765;28;20236;-69
2022/10/01 09:01:02;;;;;;;1.57;0.90;;;;;;;10.62;95.05;99936.28;6196447;28;20316;-68
2022/10/01 09:04:24;;;;;;;1.53;1.43;;;;;;;10.72;94.81;99937.81;6194486;28;20267;-69
2022/10/01 09:07:54;;;;;;;1.47;1.47;;;;;;;10.62;95.11;99926.31;6190980;28;20234;-69
2022/10/01 09:11:29;;;;;;;1.00;1.00;;;;;;;10.70;95.73;99933.63;6180519;28;20240;-71
2022/10/01 09:15:02;;;;;;;1.40;1.03;;;;;;;10.76;95.14;99930.28;6188502;28;20649;-69
2022/10/01 09:18:34;;;;;;;2.07;1.30;;;;;;;10.66;95.86;99938.47;6193013;28;20237;-69
2022/10/01 09:21:58;;;;;;;1.80;1.70;;;;;;;10.68;96.11;99941.03;6192174;28;20237;-68
2022/10/01 09:25:21;;;;;;;0.93;0.93;;;;;;;10.72;96.44;99935.13;6180405;28;20246;-68
2022/10/01 09:28:48;;;;;;;1.50;1.40;;;;;;;10.77;96.69;99948.13;6181527;28;20239;-68
2022/10/01 09:32:15;;;;;;;5.13;2.20;;;;;;;10.82;96.38;99935.88;6184897;28;20228;-69
2022/10/01 09:35:43;;;;;;;1.10;0.97;;;;;;;10.93;96.36;99945.53;6182842;28;20244;-69
2022/10/01 09:39:17;;;;;;;0.90;0.90;;;;;;;11.00;96.91;99943.88;6187595;28;20236;-68
2022/10/01 09:42:37;;;;;;;1.57;1.20;;;;;;;11.05;96.66;99941.53;6177022;28;20263;-72
2022/10/01 09:45:59;;;;;;;1.37;1.23;;;;;;;11.13;96.14;99949.66;6170742;28;20230;-71
2022/10/01 09:49:29;;;;;;;1.47;1.30;;;;;;;11.19;95.96;99940.91;6163105;28;20244;-72
2022/10/01 09:52:53;;;;;;;1.10;1.10;;;;;;;11.24;95.52;99938.59;6174257;28;20286;-73
2022/10/01 09:56:22;;;;;;;5.00;2.37;;;;;;;11.35;95.58;99945.53;6175341;28;20246;-70
2022/10/01 09:59:47;;;;;;;1.17;1.07;;;;;;;11.39;95.67;99944.19;6194004;28;20228;-72
2022/10/01 10:03:08;;;;;;;1.83;1.70;;;;;;;11.49;95.17;99945.75;6195346;28;20237;-71
2022/10/01 10:06:31;;;;;;;1.40;1.30;;;;;;;11.57;94.79;99947.59;6175113;28;20487;-71
2022/10/01 10:09:52;;;;;;;2.00;1.40;;;;;;;11.84;94.58;99942.81;6194332;28;20320;-71
2022/10/01 10:13:33;;;;;;;1.77;1.67;;;;;;;11.87;94.02;99950.56;6196055;28;20524;-72
2022/10/01 10:16:55;;;;;;;2.97;1.43;;;;;;;11.96;94.01;99943.31;6193914;28;20271;-71
2022/10/01 10:20:24;;;;;;;2.07;1.87;;;;;;;12.90;91.65;99954.34;6200969;28;20264;-71
2022/10/01 10:23:50;;;;;;;2.00;1.90;;;;;;;13.23;88.31;99948.69;6193718;28;20229;-71
2022/10/01 10:27:24;;;;;;;1.57;1.47;;;;;;;13.03;89.72;99955.50;6194749;28;20237;-71
2022/10/01 10:30:47;;;;;;;1.57;1.47;;;;;;;12.78;89.75;99967.41;6197827;28;20598;-74
2022/10/01 10:34:13;;;;;;;1.87;1.77;;;;;;;12.70;90.65;99964.72;6191328;28;20229;-74
2022/10/01 10:37:43;;;;;;;2.10;1.70;;;;;;;12.62;91.61;99973.69;6179096;28;20232;-71
2022/10/01 10:41:04;;;;;;;1.80;1.60;;;;;;;12.71;90.82;99967.25;6162299;28;22892;-70
2022/10/01 10:44:33;;;;;;;2.07;1.87;;;;;;;12.74;90.43;99985.00;6171114;28;20959;-75
2022/10/01 10:47:57;;;;;;;3.63;1.97;;;;;;;13.83;86.00;99981.34;6171203;28;20238;-70
2022/10/01 10:51:18;;;;;;;1.60;1.50;;;;;;;13.68;87.00;99972.31;6145485;28;20241;-70
2022/10/01 10:54:46;;;;;;;3.73;1.93;;;;;;;14.11;84.64;99979.81;6167227;28;20236;-71
2022/10/01 10:58:10;;;;;;;1.97;1.83;;;;;;;13.58;86.79;99988.78;6145186;28;20228;-71
2022/10/01 11:01:31;;;;;;;1.97;1.80;;;;;;;15.30;83.28;99982.56;6147471;28;20233;-69
2022/10/01 11:04:54;;;;;;;2.87;1.90;;;;;;;16.09;77.38;99979.81;6167810;28;20324;-70
2022/10/01 11:08:20;;;;;;;4.50;1.80;;;;;;;17.58;70.70;99979.28;6162356;28;20233;-71
2022/10/01 11:11:51;;;;;;;1.40;1.30;;;;;;;18.04;69.01;99976.75;6184340;28;20232;-71
2022/10/01 11:15:25;;;;;;;2.42;1.45;;;;;;;19.06;64.38;99977.22;6177858;28;20232;-70
2022/10/01 11:19:00;;;;;;;1.10;1.10;;;;;;;19.14;64.57;99980.56;6176024;28;20261;-75
2022/10/01 11:22:43;;;;;;;2.90;1.40;;;;;;;19.57;64.24;99975.41;6179977;28;20519;-73
2022/10/01 11:26:15;;;;;;;1.65;1.55;;;;;;;19.35;63.62;99979.50;6187108;28;20233;-73
2022/10/01 11:29:49;;;;;;;1.50;1.08;;;;;;;20.17;60.14;99984.19;6185847;28;20237;-75
2022/10/01 11:33:20;;;;;;;1.40;1.20;;;;;;;19.20;61.47;99995.25;6182776;28;20626;-73
2022/10/01 11:36:50;;;;;;;2.28;1.70;;;;;;;16.95;70.45;99989.59;6189869;28;20574;-74
2022/10/01 11:40:23;;;;;;;3.03;2.28;;;;;;;16.26;74.01;99994.84;6192946;28;20229;-73
2022/10/01 11:43:49;;;;;;;2.50;1.48;;;;;;;15.60;77.10;100001.41;6190429;28;20385;-74
2022/10/01 11:47:15;;;;;;;1.50;1.40;;;;;;;15.76;76.61;100005.78;6185766;28;20516;-70
2022/10/01 11:50:40;;;;;;;2.53;2.00;;;;;;;16.60;75.08;99991.41;6183990;28;20252;-70
2022/10/01 11:54:06;;;;;;;4.63;1.67;;;;;;;17.19;71.88;99997.31;6169755;28;20232;-70
2022/10/01 12:01:13;;;;;;;4.03;2.57;;;;;;;15.86;76.54;99995.44;6178605;28;20241;-70
2022/10/01 12:04:38;;;;;;;2.07;1.57;;;;;;;16.50;74.32;99982.75;6181730;28;20233;-71
2022/10/01 12:08:08;;;;;;;6.23;2.67;;;;;;;17.65;69.39;99994.84;6183940;28;20232;-72
2022/10/01 12:11:35;;;;;;;2.25;1.42;;;;;;;21.11;58.26;99987.72;6180105;28;20552;-73
2022/10/01 12:15:04;;;;;;;4.22;0.90;;;;;;;19.17;63.18;99989.41;6186658;28;20659;-74
2022/10/01 12:18:32;;;;;;;3.92;1.10;;;;;;;20.90;56.73;99985.34;6182425;28;20226;-68
2022/10/01 12:21:58;;;;;;;2.15;1.23;;;;;;;20.73;55.72;99983.16;6193775;28;20647;-72
2022/10/01 12:25:23;;;;;;;0.75;0.73;;;;;;;21.26;54.31;99988.16;6195362;28;20336;-72
2022/10/01 12:28:53;;;;;;;2.88;1.20;;;;;;;18.68;61.73;99998.88;6194647;28;20241;-71
2022/10/01 12:32:25;;;;;;;3.85;1.00;;;;;;;17.07;67.05;99994.28;6206651;28;20225;-74
2022/10/01 12:35:57;;;;;;;4.30;1.35;;;;;;;18.38;64.21;99994.00;6203646;28;20266;-74
2022/10/01 12:39:33;;;;;;;2.20;0.95;;;;;;;18.17;64.22;99998.56;6205989;28;20787;-76
2022/10/01 12:43:06;;;;;;;3.75;1.42;;;;;;;16.93;68.39;100006.13;6205198;28;20232;-72
2022/10/01 12:46:38;;;;;;;1.25;1.15;;;;;;;16.13;71.55;100004.72;6164760;28;20226;-75
2022/10/01 12:50:10;;;;;;;2.17;1.07;;;;;;;16.09;72.94;100011.59;6209703;28;20229;-76
2022/10/01 12:53:39;;;;;;;1.27;1.10;;;;;;;15.99;74.49;100012.75;6209865;28;20226;-76
2022/10/01 12:57:11;;;;;;;5.40;1.63;;;;;;;15.86;74.60;100009.03;6204795;28;20609;-77
2022/10/01 13:00:39;;;;;;;2.60;1.47;;;;;;;15.50;72.24;100019.88;6190131;28;20233;-76
2022/10/01 13:04:30;;;;;;;10.77;1.67;;;;;;;15.35;71.79;100029.03;6190220;28;20232;-76
2022/10/01 13:08:03;;;;;;;0.60;0.60;;;;;;;15.25;71.28;100040.16;6189346;28;20225;-77
2022/10/01 13:11:40;;;;;;;0.70;0.70;;;;;;;15.19;72.14;100049.91;6159583;28;20242;-75
2022/10/01 13:15:02;;;;;;;3.70;1.00;;;;;;;15.08;74.48;100044.09;6190989;28;20225;-75
2022/10/01 13:18:35;;;;;;;1.47;0.97;;;;;;;15.06;75.43;100054.31;6183881;28;20233;-77
2022/10/01 13:22:06;;;;;;;1.40;1.20;;;;;;;14.86;75.26;100082.97;6182646;28;20225;-72
2022/10/01 13:25:36;;;;;;;1.07;0.97;;;;;;;14.76;76.45;100118.50;6184642;28;20755;-71
2022/10/01 13:29:09;;;;;;;1.73;0.50;;;;;;;14.41;76.67;100121.81;6187357;28;21087;-73
2022/10/01 13:32:32;;;;;;;1.83;0.40;;;;;;;13.98;77.86;100114.22;6207823;28;20220;-73
2022/10/01 13:35:56;;;;;;;2.63;0.93;;;;;;;13.92;79.00;100123.91;6202181;28;21694;-73
2022/10/01 13:39:21;;;;;;;1.27;0.60;;;;;;;13.62;80.40;100128.25;6198411;28;20237;-73
2022/10/01 13:42:46;;;;;;;0.80;0.60;;;;;;;13.67;81.22;100126.88;6190933;28;20503;-72
2022/10/01 13:46:10;;;;;;;3.40;0.73;;;;;;;13.64;81.72;100137.03;6195521;28;20802;-72
2022/10/01 13:49:32;;;;;;;2.70;1.00;;;;;;;13.48;82.96;100141.66;6194509;28;20233;-73
2022/10/01 13:53:05;;;;;;;0.67;0.57;;;;;;;13.45;84.06;100142.88;6194997;28;20234;-74
2022/10/01 13:56:28;;;;;;;0.83;0.67;;;;;;;13.31;84.54;100143.53;6189751;28;20229;-72
2022/10/01 13:59:59;;;;;;;1.00;1.00;;;;;;;13.08;85.17;100128.19;6193171;28;20229;-72
2022/10/01 14:03:35;;;;;;;2.57;1.10;;;;;;;13.28;84.52;100135.78;6195714;28;20244;-72
2022/10/01 14:06:59;;;;;;;0.67;0.67;;;;;;;13.44;83.98;100134.88;6189460;28;20241;-73
2022/10/01 14:10:22;;;;;;;1.33;0.97;;;;;;;13.60;82.25;100137.59;6187165;28;20232;-73
2022/10/01 14:17:30;;;;;;;2.00;0.87;;;;;;;16.95;70.86;100132.03;6183293;28;20549;-72
2022/10/01 14:21:02;;;;;;;2.03;1.27;;;;;;;20.14;60.01;100127.78;6178348;28;20233;-72
2022/10/01 14:24:32;;;;;;;0.93;0.90;;;;;;;19.74;58.68;100142.63;6176479;28;20228;-69
2022/10/01 14:28:08;;;;;;;3.63;1.50;;;;;;;19.69;59.73;100142.44;6179499;28;20233;-70
2022/10/01 14:31:40;;;;;;;0.98;0.85;;;;;;;18.50;61.48;100150.72;6147556;28;20410;-70
2022/10/01 14:35:20;;;;;;;1.85;1.30;;;;;;;17.51;65.01;100155.59;6181587;28;20251;-69
2022/10/01 14:38:40;;;;;;;1.10;1.00;;;;;;;15.98;69.57;100157.03;6199366;28;20353;-70
2022/10/01 14:42:08;;;;;;;2.80;1.97;;;;;;;16.87;67.43;100161.28;6196634;28;20253;-70
2022/10/01 14:45:29;;;;;;;0.60;0.60;;;;;;;17.33;65.93;100165.28;6209915;28;20220;-69
2022/10/01 14:48:57;;;;;;;3.67;1.17;;;;;;;16.85;68.14;100166.06;6203860;28;20233;-70
2022/10/01 14:52:22;;;;;;;1.60;0.60;;;;;;;16.52;69.79;100163.81;6200381;28;20229;-70
2022/10/01 14:55:43;;;;;;;2.27;1.20;;;;;;;16.59;69.26;100174.78;6199330;28;21881;-70
2022/10/01 14:59:06;;;;;;;4.13;1.37;;;;;;;16.69;69.50;100172.59;6210331;28;20221;-69
2022/10/01 15:07:45;;;;;;;1.43;1.23;;;;;;;15.83;73.18;100200.53;6275544;27;20317;-70
2022/10/01 15:11:10;;;;;;;1.87;1.00;;;;;;;16.02;72.63;100205.41;6263842;28;20227;-69
2022/10/01 15:14:32;;;;;;;1.30;1.10;;;;;;;15.91;74.22;100196.88;6272811;28;20254;-70
2022/10/01 15:17:53;;;;;;;0.80;0.80;;;;;;;15.99;74.04;100205.81;6273886;28;20216;-69
2022/10/01 15:21:19;;;;;;;3.73;0.90;;;;;;;15.94;73.54;100210.94;6257786;28;20232;-68
2022/10/01 15:24:45;;;;;;;2.10;1.07;;;;;;;15.34;76.17;100214.72;6289730;28;20227;-69
2022/10/01 15:28:14;;;;;;;2.80;1.47;;;;;;;15.34;76.96;100218.31;6283098;28;20223;-69
2022/10/01 15:31:36;;;;;;;1.00;0.90;;;;;;;14.67;79.13;100227.25;6279281;28;20646;-71
2022/10/01 15:35:01;;;;;;;2.00;1.20;;;;;;;14.61;80.08;100226.13;6281976;28;20224;-73
2022/10/01 15:38:23;;;;;;;3.00;1.60;;;;;;;14.38;81.48;100223.34;6279779;28;20231;-73
2022/10/01 15:41:51;;;;;;;2.30;1.33;;;;;;;14.51;81.58;100228.22;6282463;28;21106;-72
2022/10/01 15:45:25;;;;;;;1.90;1.53;;;;;;;14.59;81.68;100232.75;6279729;28;20235;-74
2022/10/01 15:48:46;;;;;;;1.67;1.10;;;;;;;14.64;80.83;100233.06;6285251;28;20223;-70
2022/10/01 15:55:56;;;;;;;4.43;1.27;;;;;;;14.68;81.43;100240.69;6266006;28;20231;-69
2022/10/01 15:59:20;;;;;;;1.60;1.23;;;;;;;14.70;81.66;100249.47;6285810;28;20556;-68
2022/10/01 16:02:44;;;;;;;1.93;1.20;;;;;;;14.68;82.06;100259.66;6282070;28;20227;-68
2022/10/01 16:06:07;;;;;;;1.33;1.23;;;;;;;14.79;81.75;100270.09;6273880;28;20231;-70
2022/10/01 16:09:29;;;;;;;1.90;1.43;;;;;;;14.65;82.31;100270.00;6280222;28;20223;-69
2022/10/01 16:12:50;;;;;;;1.63;1.00;;;;;;;14.49;83.79;100264.66;6282932;28;20231;-70